createdAt,value
2023-05-02T00:03:33.793Z,10.50
2023-05-02T00:08:36.724Z,10.61
2023-05-02T00:13:39.602Z,10.57
2023-05-02T00:18:42.570Z,10.43
2023-05-02T00:23:45.491Z,10.46
2023-05-02T00:28:48.368Z,10.39
2023-05-02T00:33:51.221Z,10.41
2023-05-02T00:38:54.228Z,10.20
2023-05-02T00:43:58.772Z,10.06
2023-05-02T00:49:02.165Z,9.90
2023-05-02T00:54:06.337Z,9.93
2023-05-02T00:59:27.691Z,9.73
2023-05-02T01:04:44.133Z,9.53
2023-05-02T01:10:08.005Z,9.53
2023-05-02T01:15:16.957Z,9.43
2023-05-02T01:20:24.036Z,9.29
2023-05-02T01:25:38.082Z,9.34
2023-05-02T01:31:01.856Z,9.31
2023-05-02T01:36:07.519Z,9.36
2023-05-02T01:41:12.606Z,9.35
2023-05-02T01:46:16.156Z,9.43
2023-05-02T01:51:19.830Z,9.38
2023-05-02T01:56:25.486Z,9.37
2023-05-02T02:01:31.352Z,9.44
2023-05-02T02:06:34.629Z,9.46
2023-05-02T02:11:44.172Z,9.49
2023-05-02T02:16:48.066Z,9.51
2023-05-02T02:21:52.098Z,9.65
2023-05-02T02:26:54.982Z,9.81
2023-05-02T02:31:57.969Z,9.78
2023-05-02T02:37:19.619Z,9.76
2023-05-02T02:42:45.089Z,9.72
2023-05-02T02:48:02.622Z,9.83
2023-05-02T02:53:13.839Z,9.85
2023-05-02T02:58:36.462Z,9.88
2023-05-02T03:03:57.894Z,9.89
2023-05-02T03:09:01.873Z,10.05
2023-05-02T03:14:06.414Z,10.22
2023-05-02T03:19:10.933Z,10.32
2023-05-02T03:24:16.624Z,10.52
2023-05-02T03:29:21.571Z,10.56
2023-05-02T03:34:24.815Z,10.63
2023-05-02T03:39:28.959Z,10.80
2023-05-02T03:44:53.307Z,11.06
2023-05-02T03:49:57.595Z,11.54
2023-05-02T03:55:02.345Z,11.54
2023-05-02T04:00:23.928Z,11.89
2023-05-02T04:05:34.224Z,11.59
2023-05-02T04:10:37.322Z,11.47
2023-05-02T04:15:45.811Z,11.62
2023-05-02T04:20:51.241Z,12.04
2023-05-02T04:25:56.755Z,12.50
2023-05-02T04:31:16.842Z,12.52
2023-05-02T04:36:21.296Z,12.67
2023-05-02T04:41:24.513Z,12.38
2023-05-02T04:46:34.637Z,12.28
2023-05-02T04:51:38.438Z,12.11
2023-05-02T04:56:41.503Z,11.79
2023-05-02T05:01:45.742Z,11.95
2023-05-02T05:06:49.551Z,11.82
2023-05-02T05:11:54.293Z,12.10
2023-05-02T05:16:58.472Z,12.40
2023-05-02T05:22:02.204Z,12.36
2023-05-02T05:27:05.826Z,12.44
2023-05-02T05:32:09.252Z,12.56
2023-05-02T05:37:13.133Z,12.57
2023-05-02T05:42:17.367Z,12.09
2023-05-02T05:47:23.839Z,12.23
2023-05-02T05:52:28.701Z,12.26
2023-05-02T05:57:33.257Z,12.51
2023-05-02T06:02:36.293Z,12.62
2023-05-02T06:07:39.512Z,12.67
2023-05-02T06:12:42.894Z,12.95
2023-05-02T06:17:47.872Z,13.13
2023-05-02T06:22:51.385Z,13.49
2023-05-02T06:27:54.427Z,13.67
2023-05-02T06:32:57.574Z,13.88
2023-05-02T06:38:19.436Z,13.76
2023-05-02T06:43:22.236Z,13.63
2023-05-02T06:48:25.229Z,13.55
2023-05-02T06:53:29.414Z,13.75
2023-05-02T06:58:33.065Z,14.21
2023-05-02T07:03:36.159Z,14.13
2023-05-02T07:08:39.114Z,14.28
2023-05-02T07:13:42.074Z,14.35
2023-05-02T07:19:04.822Z,14.81
2023-05-02T07:24:07.704Z,15.13
2023-05-02T07:29:10.759Z,14.91
2023-05-02T07:34:13.624Z,14.87
2023-05-02T07:39:16.528Z,15.03
2023-05-02T07:44:19.334Z,15.20
2023-05-02T07:49:22.250Z,15.41
2023-05-02T07:54:28.174Z,15.04
2023-05-02T07:59:32.334Z,14.80
2023-05-02T08:04:35.497Z,15.35
2023-05-02T08:09:56.826Z,15.78
2023-05-02T08:14:59.541Z,15.63
2023-05-02T08:20:02.767Z,16.09
2023-05-02T08:25:08.000Z,15.92
2023-05-02T08:30:11.412Z,16.59
2023-05-02T08:35:14.311Z,16.90
2023-05-02T08:40:24.708Z,16.91
2023-05-02T08:45:54.584Z,16.64
2023-05-02T08:50:59.365Z,15.72
2023-05-02T08:56:03.337Z,15.54
2023-05-02T09:01:29.060Z,15.79
2023-05-02T09:06:33.116Z,15.98
2023-05-02T09:11:54.687Z,16.32
2023-05-02T09:17:01.237Z,17.26
2023-05-02T09:22:04.649Z,17.44
2023-05-02T09:27:27.881Z,17.52
2023-05-02T09:32:46.321Z,17.28
2023-05-02T09:37:54.110Z,17.35
2023-05-02T09:42:57.513Z,17.50
2023-05-02T09:48:03.169Z,16.94
2023-05-02T09:53:08.201Z,16.84
2023-05-02T09:58:31.354Z,16.73
2023-05-02T10:03:38.099Z,16.70
2023-05-02T10:08:43.766Z,16.86
2023-05-02T10:13:47.233Z,17.60
2023-05-02T10:19:04.305Z,17.63
2023-05-02T10:24:07.579Z,17.86
2023-05-02T10:29:11.728Z,18.35
2023-05-02T10:34:17.180Z,17.29
2023-05-02T10:39:24.578Z,17.25
2023-05-02T10:44:35.684Z,17.00
2023-05-02T10:50:00.899Z,17.42
2023-05-02T10:55:23.546Z,17.40
2023-05-02T11:00:27.342Z,17.76
2023-05-02T11:05:30.648Z,18.17
2023-05-02T11:10:33.553Z,17.86
2023-05-02T11:15:42.291Z,18.01
2023-05-02T11:20:46.068Z,17.77
2023-05-02T11:26:01.209Z,17.91
2023-05-02T11:31:06.912Z,17.61
2023-05-02T11:36:10.093Z,17.30
2023-05-02T11:41:12.966Z,17.15
2023-05-02T11:46:17.661Z,17.28
2023-05-02T11:51:23.946Z,17.21
2023-05-02T11:56:27.332Z,17.34
2023-05-02T12:01:31.050Z,17.23
2023-05-02T12:06:34.385Z,17.26
2023-05-02T12:11:38.864Z,16.73
2023-05-02T12:16:42.390Z,16.58
2023-05-02T12:21:45.718Z,16.69
2023-05-02T12:26:49.746Z,16.43
2023-05-02T12:31:54.228Z,16.32
2023-05-02T12:36:57.896Z,16.09
2023-05-02T12:42:00.815Z,16.01
2023-05-02T12:47:03.643Z,16.28
2023-05-02T12:52:06.606Z,16.07
2023-05-02T12:57:09.642Z,15.84
2023-05-02T13:02:32.117Z,15.79
2023-05-02T13:07:36.725Z,15.87
2023-05-02T13:12:40.353Z,15.84
2023-05-02T13:17:43.447Z,15.91
2023-05-02T13:22:46.587Z,15.74
2023-05-02T13:27:49.585Z,15.61
2023-05-02T13:32:52.857Z,15.83
2023-05-02T13:37:55.879Z,15.79
2023-05-02T13:42:58.910Z,15.71
2023-05-02T13:48:01.648Z,15.35
2023-05-02T13:53:04.462Z,15.33
2023-05-02T13:58:07.578Z,15.55
2023-05-02T14:03:11.852Z,15.51
2023-05-02T14:08:18.574Z,15.56
2023-05-02T14:13:21.665Z,15.50
2023-05-02T14:18:24.521Z,15.24
2023-05-02T14:23:30.204Z,15.13
2023-05-02T14:28:33.045Z,14.91
2023-05-02T14:33:35.809Z,14.92
2023-05-02T14:38:38.644Z,14.75
2023-05-02T14:43:41.594Z,14.94
2023-05-02T14:48:44.694Z,14.82
2023-05-02T14:53:48.515Z,14.81
2023-05-02T14:58:51.359Z,14.86
2023-05-02T15:09:02.074Z,15.06
2023-05-02T15:14:04.991Z,15.12
2023-05-02T15:19:07.947Z,14.98
2023-05-02T15:24:11.674Z,15.11
2023-05-02T15:29:14.706Z,15.23
2023-05-02T15:34:17.689Z,15.26
2023-05-02T15:39:39.189Z,15.21
2023-05-02T15:44:42.345Z,15.19
2023-05-02T15:49:45.235Z,15.13
2023-05-02T15:54:48.028Z,14.91
2023-05-02T16:00:16.223Z,14.81
2023-05-02T16:05:19.476Z,14.65
2023-05-02T16:10:22.569Z,14.55
2023-05-02T16:15:26.618Z,14.47
2023-05-02T16:20:29.793Z,14.42
2023-05-02T16:25:32.879Z,14.38
2023-05-02T16:30:38.861Z,14.48
2023-05-02T16:35:41.948Z,14.52
2023-05-02T16:40:44.926Z,14.47
2023-05-02T16:45:47.888Z,14.41
2023-05-02T16:50:51.112Z,13.25
2023-05-02T16:56:12.498Z,12.38
2023-05-02T17:01:35.746Z,11.59
2023-05-02T17:06:39.603Z,11.11
2023-05-02T17:11:42.617Z,10.84
2023-05-02T17:16:45.721Z,10.65
2023-05-02T17:21:48.747Z,10.65
2023-05-02T17:26:52.328Z,10.45
2023-05-02T17:32:00.637Z,10.34
2023-05-02T17:37:22.000Z,10.22
2023-05-02T17:42:45.761Z,10.06
2023-05-02T17:47:48.770Z,9.99
2023-05-02T17:52:51.963Z,9.80
2023-05-02T17:57:54.940Z,9.75
2023-05-02T18:02:58.035Z,9.73
2023-05-02T18:08:19.679Z,9.91
2023-05-02T18:13:22.705Z,9.90
2023-05-02T18:18:25.871Z,9.84
2023-05-02T18:23:29.486Z,9.65
2023-05-02T18:28:33.576Z,9.66
2023-05-02T18:33:36.565Z,9.78
2023-05-02T18:38:40.556Z,10.00
2023-05-02T18:43:43.408Z,9.97
2023-05-02T18:48:46.586Z,9.97
2023-05-02T18:53:49.480Z,10.11
2023-05-02T18:58:56.673Z,10.24
2023-05-02T19:04:01.213Z,10.26
2023-05-02T19:09:04.973Z,10.07
2023-05-02T19:14:07.984Z,10.26
2023-05-02T19:19:29.326Z,10.23
2023-05-02T19:24:32.552Z,10.20
2023-05-02T19:29:35.551Z,10.40
2023-05-02T19:34:38.427Z,10.40
2023-05-02T19:39:41.267Z,10.07
2023-05-02T19:44:44.323Z,10.00
2023-05-02T19:50:07.829Z,10.12
2023-05-02T19:55:11.096Z,10.23
2023-05-02T20:00:14.333Z,10.18
2023-05-02T20:05:17.266Z,10.07
2023-05-02T20:10:20.616Z,10.08
2023-05-02T20:15:23.594Z,9.88
2023-05-02T20:20:26.715Z,9.90
2023-05-02T20:25:48.331Z,9.89
2023-05-02T20:30:51.743Z,9.88
2023-05-02T20:35:55.191Z,9.68
2023-05-02T20:40:58.166Z,9.71
2023-05-02T20:46:10.060Z,9.82
2023-05-02T20:51:13.332Z,9.84
2023-05-02T20:56:16.319Z,9.91
2023-05-02T21:01:19.263Z,9.87
2023-05-02T21:06:22.427Z,9.81
2023-05-02T21:11:26.572Z,9.75
2023-05-02T21:16:29.513Z,9.73
2023-05-02T21:21:51.026Z,9.84
2023-05-02T21:26:53.953Z,9.85
2023-05-02T21:31:56.955Z,9.87
2023-05-02T21:37:00.271Z,9.76
2023-05-02T21:42:03.335Z,9.81
2023-05-02T21:47:06.327Z,9.71
2023-05-02T21:52:09.715Z,9.82
2023-05-02T21:57:12.756Z,9.78
2023-05-02T22:02:15.868Z,9.69
2023-05-02T22:07:18.791Z,9.59
2023-05-02T22:12:24.465Z,9.34
2023-05-02T22:17:27.673Z,9.20
2023-05-02T22:22:30.699Z,9.00
2023-05-02T22:27:33.822Z,8.86
2023-05-02T22:32:36.967Z,8.72
2023-05-02T22:37:40.062Z,8.75
2023-05-02T22:42:43.115Z,8.75
2023-05-02T22:47:46.100Z,8.71
2023-05-02T22:52:49.487Z,8.76
2023-05-02T22:57:52.634Z,8.86
2023-05-02T23:02:56.508Z,8.87
2023-05-02T23:08:18.270Z,8.95
2023-05-02T23:13:39.952Z,8.83
2023-05-02T23:18:42.904Z,8.87
2023-05-02T23:23:45.836Z,8.74
2023-05-02T23:28:48.785Z,8.54
2023-05-02T23:33:51.736Z,8.52
2023-05-02T23:38:54.779Z,8.31
2023-05-02T23:43:57.823Z,8.14
2023-05-02T23:49:01.153Z,8.06
2023-05-02T23:54:04.106Z,8.03
2023-05-02T23:59:07.015Z,7.92
